sensor_id;sensor_type;location;lat;lon;timestamp;P1;durP1;ratioP1;P2;durP2;ratioP2
57233;SDS011;43090;52.604;13.318;2022-07-22T00:02:12;10.77;;;7.28;;
57233;SDS011;43090;52.604;13.318;2022-07-22T00:04:39;13.38;;;7.65;;
57233;SDS011;43090;52.604;13.318;2022-07-22T00:07:05;11.00;;;7.28;;
57233;SDS011;43090;52.604;13.318;2022-07-22T00:09:32;11.75;;;7.53;;
57233;SDS011;43090;52.604;13.318;2022-07-22T00:11:59;11.00;;;7.72;;
57233;SDS011;43090;52.604;13.318;2022-07-22T00:14:27;13.48;;;7.60;;
57233;SDS011;43090;52.604;13.318;2022-07-22T00:16:54;10.05;;;6.25;;
57233;SDS011;43090;52.604;13.318;2022-07-22T00:19:21;10.35;;;6.90;;
57233;SDS011;43090;52.604;13.318;2022-07-22T00:29:26;12.55;;;7.25;;
57233;SDS011;43090;52.604;13.318;2022-07-22T00:31:53;11.55;;;6.97;;
57233;SDS011;43090;52.604;13.318;2022-07-22T00:34:20;12.55;;;7.95;;
57233;SDS011;43090;52.604;13.318;2022-07-22T00:36:49;9.50;;;6.75;;
57233;SDS011;43090;52.604;13.318;2022-07-22T00:39:22;10.10;;;7.28;;
57233;SDS011;43090;52.604;13.318;2022-07-22T00:41:49;10.30;;;6.85;;
57233;SDS011;43090;52.604;13.318;2022-07-22T00:44:22;12.77;;;7.28;;
57233;SDS011;43090;52.604;13.318;2022-07-22T00:46:51;11.35;;;6.55;;
57233;SDS011;43090;52.604;13.318;2022-07-22T00:49:26;10.65;;;7.38;;
57233;SDS011;43090;52.604;13.318;2022-07-22T00:52:07;12.60;;;6.25;;
57233;SDS011;43090;52.604;13.318;2022-07-22T00:54:53;12.00;;;6.45;;
57233;SDS011;43090;52.604;13.318;2022-07-22T00:57:41;8.27;;;5.85;;
57233;SDS011;43090;52.604;13.318;2022-07-22T01:00:38;9.18;;;5.80;;
57233;SDS011;43090;52.604;13.318;2022-07-22T01:03:08;8.23;;;5.15;;
57233;SDS011;43090;52.604;13.318;2022-07-22T01:05:56;9.90;;;5.55;;
57233;SDS011;43090;52.604;13.318;2022-07-22T01:08:36;13.48;;;6.10;;
57233;SDS011;43090;52.604;13.318;2022-07-22T01:11:14;7.78;;;5.70;;
57233;SDS011;43090;52.604;13.318;2022-07-22T01:13:45;11.57;;;5.90;;
57233;SDS011;43090;52.604;13.318;2022-07-22T01:16:18;8.23;;;5.65;;
57233;SDS011;43090;52.604;13.318;2022-07-22T01:19:14;11.43;;;6.50;;
57233;SDS011;43090;52.604;13.318;2022-07-22T01:22:19;10.55;;;5.43;;
57233;SDS011;43090;52.604;13.318;2022-07-22T01:24:59;8.95;;;4.93;;
57233;SDS011;43090;52.604;13.318;2022-07-22T01:27:30;7.28;;;5.00;;
57233;SDS011;43090;52.604;13.318;2022-07-22T01:30:16;7.60;;;4.95;;
57233;SDS011;43090;52.604;13.318;2022-07-22T01:36:34;10.55;;;5.38;;
57233;SDS011;43090;52.604;13.318;2022-07-22T01:42:52;7.78;;;4.75;;
57233;SDS011;43090;52.604;13.318;2022-07-22T01:45:19;6.82;;;4.65;;
57233;SDS011;43090;52.604;13.318;2022-07-22T01:47:56;6.82;;;5.25;;
57233;SDS011;43090;52.604;13.318;2022-07-22T01:55:05;6.40;;;4.80;;
57233;SDS011;43090;52.604;13.318;2022-07-22T01:57:44;6.30;;;4.88;;
57233;SDS011;43090;52.604;13.318;2022-07-22T02:30:29;6.57;;;4.55;;
57233;SDS011;43090;52.604;13.318;2022-07-22T02:33:03;6.28;;;4.85;;
57233;SDS011;43090;52.604;13.318;2022-07-22T02:35:34;9.13;;;5.53;;
57233;SDS011;43090;52.604;13.318;2022-07-22T02:38:02;10.88;;;5.15;;
57233;SDS011;43090;52.604;13.318;2022-07-22T02:40:39;9.02;;;6.13;;
57233;SDS011;43090;52.604;13.318;2022-07-22T02:47:11;7.10;;;5.35;;
57233;SDS011;43090;52.604;13.318;2022-07-22T02:49:37;9.23;;;5.80;;
57233;SDS011;43090;52.604;13.318;2022-07-22T02:52:04;9.25;;;5.85;;
57233;SDS011;43090;52.604;13.318;2022-07-22T02:54:31;10.13;;;4.90;;
57233;SDS011;43090;52.604;13.318;2022-07-22T02:59:24;6.25;;;4.97;;
57233;SDS011;43090;52.604;13.318;2022-07-22T03:01:51;7.18;;;5.93;;
57233;SDS011;43090;52.604;13.318;2022-07-22T03:04:20;12.65;;;5.85;;
57233;SDS011;43090;52.604;13.318;2022-07-22T03:06:50;11.55;;;6.70;;
57233;SDS011;43090;52.604;13.318;2022-07-22T03:11:47;13.88;;;6.40;;
57233;SDS011;43090;52.604;13.318;2022-07-22T03:14:15;13.65;;;6.25;;
57233;SDS011;43090;52.604;13.318;2022-07-22T03:16:50;11.38;;;6.45;;
57233;SDS011;43090;52.604;13.318;2022-07-22T03:19:25;8.98;;;5.70;;
57233;SDS011;43090;52.604;13.318;2022-07-22T03:21:59;7.75;;;6.38;;
57233;SDS011;43090;52.604;13.318;2022-07-22T03:32:56;13.70;;;6.45;;
57233;SDS011;43090;52.604;13.318;2022-07-22T03:36:12;10.27;;;6.28;;
57233;SDS011;43090;52.604;13.318;2022-07-22T03:38:57;12.70;;;8.35;;
57233;SDS011;43090;52.604;13.318;2022-07-22T03:41:55;12.27;;;7.28;;
57233;SDS011;43090;52.604;13.318;2022-07-22T03:47:35;10.13;;;8.00;;
57233;SDS011;43090;52.604;13.318;2022-07-22T03:50:07;12.30;;;7.72;;
57233;SDS011;43090;52.604;13.318;2022-07-22T03:53:00;7.72;;;6.72;;
57233;SDS011;43090;52.604;13.318;2022-07-22T03:56:10;11.05;;;7.72;;
57233;SDS011;43090;52.604;13.318;2022-07-22T03:59:29;11.48;;;7.18;;
57233;SDS011;43090;52.604;13.318;2022-07-22T04:06:54;11.40;;;8.00;;
57233;SDS011;43090;52.604;13.318;2022-07-22T04:21:09;11.18;;;8.27;;
57233;SDS011;43090;52.604;13.318;2022-07-22T04:40:54;13.48;;;8.80;;
57233;SDS011;43090;52.604;13.318;2022-07-22T04:43:42;15.02;;;9.85;;
57233;SDS011;43090;52.604;13.318;2022-07-22T04:46:12;18.48;;;10.18;;
57233;SDS011;43090;52.604;13.318;2022-07-22T04:48:51;12.13;;;8.77;;
57233;SDS011;43090;52.604;13.318;2022-07-22T04:51:33;18.90;;;10.38;;
57233;SDS011;43090;52.604;13.318;2022-07-22T04:54:03;16.35;;;9.55;;
57233;SDS011;43090;52.604;13.318;2022-07-22T04:56:32;16.27;;;10.88;;
57233;SDS011;43090;52.604;13.318;2022-07-22T05:00:19;15.52;;;10.43;;
57233;SDS011;43090;52.604;13.318;2022-07-22T05:02:33;15.60;;;9.85;;
57233;SDS011;43090;52.604;13.318;2022-07-22T05:05:10;14.60;;;9.80;;
57233;SDS011;43090;52.604;13.318;2022-07-22T05:08:10;14.65;;;9.15;;
57233;SDS011;43090;52.604;13.318;2022-07-22T05:10:51;13.25;;;9.73;;
57233;SDS011;43090;52.604;13.318;2022-07-22T05:13:18;19.95;;;9.75;;
57233;SDS011;43090;52.604;13.318;2022-07-22T05:16:07;120.38;;;20.75;;
57233;SDS011;43090;52.604;13.318;2022-07-22T05:30:54;14.20;;;10.18;;
57233;SDS011;43090;52.604;13.318;2022-07-22T05:33:36;19.98;;;12.70;;
57233;SDS011;43090;52.604;13.318;2022-07-22T05:36:36;22.17;;;10.10;;
57233;SDS011;43090;52.604;13.318;2022-07-22T05:39:57;20.80;;;12.60;;
57233;SDS011;43090;52.604;13.318;2022-07-22T05:43:10;11.85;;;8.05;;
57233;SDS011;43090;52.604;13.318;2022-07-22T05:49:25;17.45;;;10.70;;
57233;SDS011;43090;52.604;13.318;2022-07-22T06:00:59;15.23;;;10.07;;
57233;SDS011;43090;52.604;13.318;2022-07-22T06:05:08;15.05;;;8.10;;
57233;SDS011;43090;52.604;13.318;2022-07-22T06:12:12;58.70;;;15.10;;
57233;SDS011;43090;52.604;13.318;2022-07-22T06:59:54;16.40;;;11.13;;
57233;SDS011;43090;52.604;13.318;2022-07-22T07:06:10;16.90;;;11.25;;
57233;SDS011;43090;52.604;13.318;2022-07-22T07:09:01;17.63;;;9.68;;
57233;SDS011;43090;52.604;13.318;2022-07-22T07:11:34;65.10;;;14.38;;
57233;SDS011;43090;52.604;13.318;2022-07-22T07:14:01;12.52;;;9.80;;
57233;SDS011;43090;52.604;13.318;2022-07-22T07:16:28;15.57;;;9.68;;
57233;SDS011;43090;52.604;13.318;2022-07-22T07:18:57;12.48;;;8.82;;
57233;SDS011;43090;52.604;13.318;2022-07-22T07:21:29;17.00;;;10.32;;
57233;SDS011;43090;52.604;13.318;2022-07-22T07:23:58;18.88;;;9.23;;
57233;SDS011;43090;52.604;13.318;2022-07-22T07:28:54;10.15;;;7.40;;
57233;SDS011;43090;52.604;13.318;2022-07-22T07:31:21;10.05;;;7.53;;
57233;SDS011;43090;52.604;13.318;2022-07-22T07:33:54;11.98;;;8.18;;
57233;SDS011;43090;52.604;13.318;2022-07-22T07:36:31;10.80;;;7.68;;
57233;SDS011;43090;52.604;13.318;2022-07-22T07:38:58;12.88;;;8.00;;
57233;SDS011;43090;52.604;13.318;2022-07-22T07:41:26;9.88;;;7.13;;
57233;SDS011;43090;52.604;13.318;2022-07-22T07:51:08;8.02;;;6.22;;
57233;SDS011;43090;52.604;13.318;2022-07-22T07:53:39;9.98;;;6.97;;
57233;SDS011;43090;52.604;13.318;2022-07-22T07:56:11;7.05;;;5.45;;
57233;SDS011;43090;52.604;13.318;2022-07-22T07:58:53;11.02;;;6.30;;
57233;SDS011;43090;52.604;13.318;2022-07-22T08:01:54;8.73;;;6.05;;
57233;SDS011;43090;52.604;13.318;2022-07-22T08:04:25;10.15;;;5.53;;
57233;SDS011;43090;52.604;13.318;2022-07-22T08:07:04;6.95;;;5.78;;
57233;SDS011;43090;52.604;13.318;2022-07-22T08:09:41;6.68;;;5.18;;
57233;SDS011;43090;52.604;13.318;2022-07-22T08:12:11;7.53;;;5.22;;
57233;SDS011;43090;52.604;13.318;2022-07-22T08:14:38;5.45;;;4.95;;
57233;SDS011;43090;52.604;13.318;2022-07-22T08:17:05;7.95;;;5.63;;
57233;SDS011;43090;52.604;13.318;2022-07-22T08:19:34;7.05;;;5.20;;
57233;SDS011;43090;52.604;13.318;2022-07-22T08:22:01;6.68;;;5.10;;
57233;SDS011;43090;52.604;13.318;2022-07-22T08:24:31;7.78;;;5.35;;
57233;SDS011;43090;52.604;13.318;2022-07-22T08:26:58;9.32;;;5.15;;
57233;SDS011;43090;52.604;13.318;2022-07-22T08:29:24;5.90;;;5.10;;
57233;SDS011;43090;52.604;13.318;2022-07-22T08:31:51;5.95;;;4.63;;
57233;SDS011;43090;52.604;13.318;2022-07-22T08:34:21;9.40;;;5.40;;
57233;SDS011;43090;52.604;13.318;2022-07-22T08:44:31;5.22;;;3.80;;
57233;SDS011;43090;52.604;13.318;2022-07-22T08:46:59;4.97;;;4.30;;
57233;SDS011;43090;52.604;13.318;2022-07-22T08:49:50;9.07;;;5.75;;
57233;SDS011;43090;52.604;13.318;2022-07-22T08:52:17;7.13;;;4.43;;
57233;SDS011;43090;52.604;13.318;2022-07-22T08:55:05;5.78;;;4.57;;
57233;SDS011;43090;52.604;13.318;2022-07-22T08:57:35;6.15;;;5.15;;
57233;SDS011;43090;52.604;13.318;2022-07-22T09:00:11;7.18;;;4.82;;
57233;SDS011;43090;52.604;13.318;2022-07-22T09:02:40;6.60;;;5.03;;
57233;SDS011;43090;52.604;13.318;2022-07-22T09:05:10;7.97;;;5.78;;
57233;SDS011;43090;52.604;13.318;2022-07-22T09:08:00;8.27;;;5.55;;
57233;SDS011;43090;52.604;13.318;2022-07-22T09:10:31;8.23;;;6.13;;
57233;SDS011;43090;52.604;13.318;2022-07-22T09:13:01;7.35;;;5.78;;
57233;SDS011;43090;52.604;13.318;2022-07-22T09:15:37;8.82;;;5.40;;
57233;SDS011;43090;52.604;13.318;2022-07-22T09:18:08;12.15;;;5.45;;
57233;SDS011;43090;52.604;13.318;2022-07-22T09:23:16;8.55;;;5.95;;
57233;SDS011;43090;52.604;13.318;2022-07-22T09:25:46;7.35;;;6.00;;
57233;SDS011;43090;52.604;13.318;2022-07-22T09:28:17;7.22;;;5.78;;
57233;SDS011;43090;52.604;13.318;2022-07-22T09:33:18;9.55;;;5.85;;
57233;SDS011;43090;52.604;13.318;2022-07-22T09:35:45;8.35;;;6.18;;
57233;SDS011;43090;52.604;13.318;2022-07-22T09:38:16;6.55;;;5.10;;
57233;SDS011;43090;52.604;13.318;2022-07-22T09:40:45;7.20;;;5.35;;
57233;SDS011;43090;52.604;13.318;2022-07-22T09:43:14;7.03;;;5.00;;
57233;SDS011;43090;52.604;13.318;2022-07-22T09:45:44;8.48;;;3.95;;
57233;SDS011;43090;52.604;13.318;2022-07-22T09:48:16;4.85;;;3.85;;
57233;SDS011;43090;52.604;13.318;2022-07-22T09:50:47;3.30;;;3.00;;
57233;SDS011;43090;52.604;13.318;2022-07-22T09:53:16;3.20;;;2.58;;
57233;SDS011;43090;52.604;13.318;2022-07-22T09:55:44;3.67;;;2.63;;
57233;SDS011;43090;52.604;13.318;2022-07-22T09:58:18;2.97;;;2.67;;
57233;SDS011;43090;52.604;13.318;2022-07-22T10:00:47;3.85;;;2.75;;
57233;SDS011;43090;52.604;13.318;2022-07-22T10:03:26;3.20;;;2.33;;
57233;SDS011;43090;52.604;13.318;2022-07-22T10:05:57;2.17;;;1.90;;
57233;SDS011;43090;52.604;13.318;2022-07-22T10:08:25;2.70;;;2.50;;
57233;SDS011;43090;52.604;13.318;2022-07-22T10:10:53;3.67;;;2.30;;
57233;SDS011;43090;52.604;13.318;2022-07-22T10:13:29;3.53;;;2.28;;
57233;SDS011;43090;52.604;13.318;2022-07-22T10:15:57;2.20;;;1.98;;
57233;SDS011;43090;52.604;13.318;2022-07-22T10:18:28;2.90;;;2.03;;
57233;SDS011;43090;52.604;13.318;2022-07-22T10:21:00;4.05;;;1.90;;
57233;SDS011;43090;52.604;13.318;2022-07-22T10:23:28;2.00;;;1.80;;
57233;SDS011;43090;52.604;13.318;2022-07-22T10:28:47;3.20;;;2.63;;
57233;SDS011;43090;52.604;13.318;2022-07-22T10:31:27;3.25;;;2.58;;
57233;SDS011;43090;52.604;13.318;2022-07-22T10:33:55;3.97;;;2.53;;
57233;SDS011;43090;52.604;13.318;2022-07-22T10:36:32;3.30;;;2.88;;
57233;SDS011;43090;52.604;13.318;2022-07-22T10:39:13;3.47;;;3.10;;
57233;SDS011;43090;52.604;13.318;2022-07-22T10:45:01;3.25;;;2.90;;
57233;SDS011;43090;52.604;13.318;2022-07-22T10:50:39;6.20;;;3.60;;
57233;SDS011;43090;52.604;13.318;2022-07-22T10:53:18;8.05;;;4.75;;
57233;SDS011;43090;52.604;13.318;2022-07-22T11:21:18;6.65;;;5.10;;
57233;SDS011;43090;52.604;13.318;2022-07-22T11:24:52;6.07;;;5.03;;
57233;SDS011;43090;52.604;13.318;2022-07-22T11:31:26;5.22;;;4.30;;
57233;SDS011;43090;52.604;13.318;2022-07-22T11:34:07;5.93;;;3.90;;
57233;SDS011;43090;52.604;13.318;2022-07-22T11:40:09;3.97;;;3.45;;
57233;SDS011;43090;52.604;13.318;2022-07-22T11:42:43;3.72;;;3.35;;
57233;SDS011;43090;52.604;13.318;2022-07-22T11:48:45;7.55;;;3.88;;
57233;SDS011;43090;52.604;13.318;2022-07-22T11:51:20;3.92;;;3.28;;
57233;SDS011;43090;52.604;13.318;2022-07-22T12:05:20;3.63;;;3.20;;
57233;SDS011;43090;52.604;13.318;2022-07-22T12:23:19;5.40;;;2.97;;
57233;SDS011;43090;52.604;13.318;2022-07-22T12:25:55;3.15;;;2.58;;
57233;SDS011;43090;52.604;13.318;2022-07-22T12:28:38;2.63;;;2.42;;
57233;SDS011;43090;52.604;13.318;2022-07-22T12:37:43;3.25;;;2.95;;
57233;SDS011;43090;52.604;13.318;2022-07-22T12:40:22;2.30;;;2.10;;
57233;SDS011;43090;52.604;13.318;2022-07-22T12:46:06;2.03;;;1.80;;
57233;SDS011;43090;52.604;13.318;2022-07-22T12:48:48;2.60;;;2.00;;
57233;SDS011;43090;52.604;13.318;2022-07-22T12:51:49;2.58;;;1.98;;
57233;SDS011;43090;52.604;13.318;2022-07-22T12:59:36;2.00;;;1.80;;
57233;SDS011;43090;52.604;13.318;2022-07-22T13:05:52;2.55;;;2.30;;
57233;SDS011;43090;52.604;13.318;2022-07-22T13:12:13;2.80;;;2.08;;
57233;SDS011;43090;52.604;13.318;2022-07-22T13:14:53;4.53;;;1.95;;
57233;SDS011;43090;52.604;13.318;2022-07-22T13:17:30;1.67;;;1.58;;
57233;SDS011;43090;52.604;13.318;2022-07-22T13:19:57;2.33;;;1.77;;
57233;SDS011;43090;52.604;13.318;2022-07-22T13:22:45;1.90;;;1.42;;
57233;SDS011;43090;52.604;13.318;2022-07-22T13:30:05;1.70;;;1.40;;
57233;SDS011;43090;52.604;13.318;2022-07-22T13:37:28;1.20;;;1.10;;
57233;SDS011;43090;52.604;13.318;2022-07-22T13:40:32;2.88;;;1.50;;
57233;SDS011;43090;52.604;13.318;2022-07-22T13:43:05;3.92;;;1.42;;
57233;SDS011;43090;52.604;13.318;2022-07-22T13:45:44;2.45;;;1.50;;
57233;SDS011;43090;52.604;13.318;2022-07-22T13:48:11;2.33;;;1.42;;
57233;SDS011;43090;52.604;13.318;2022-07-22T13:51:00;3.85;;;1.70;;
57233;SDS011;43090;52.604;13.318;2022-07-22T13:53:32;1.95;;;1.23;;
57233;SDS011;43090;52.604;13.318;2022-07-22T13:56:02;1.70;;;1.15;;
57233;SDS011;43090;52.604;13.318;2022-07-22T14:02:29;6.07;;;1.35;;
57233;SDS011;43090;52.604;13.318;2022-07-22T14:05:00;3.78;;;1.15;;
57233;SDS011;43090;52.604;13.318;2022-07-22T14:07:26;2.78;;;1.20;;
57233;SDS011;43090;52.604;13.318;2022-07-22T14:17:12;4.88;;;1.02;;
57233;SDS011;43090;52.604;13.318;2022-07-22T14:19:57;4.82;;;1.40;;
57233;SDS011;43090;52.604;13.318;2022-07-22T14:27:12;1.20;;;1.10;;
57233;SDS011;43090;52.604;13.318;2022-07-22T14:29:47;1.23;;;1.00;;
57233;SDS011;43090;52.604;13.318;2022-07-22T14:32:26;2.38;;;1.30;;
57233;SDS011;43090;52.604;13.318;2022-07-22T14:42:08;1.40;;;1.05;;
57233;SDS011;43090;52.604;13.318;2022-07-22T14:44:37;1.88;;;1.30;;
57233;SDS011;43090;52.604;13.318;2022-07-22T14:47:26;2.25;;;1.20;;
57233;SDS011;43090;52.604;13.318;2022-07-22T14:49:54;2.67;;;1.10;;
57233;SDS011;43090;52.604;13.318;2022-07-22T14:52:28;3.55;;;1.30;;
57233;SDS011;43090;52.604;13.318;2022-07-22T14:55:03;2.30;;;1.27;;
57233;SDS011;43090;52.604;13.318;2022-07-22T14:57:33;5.38;;;1.25;;
57233;SDS011;43090;52.604;13.318;2022-07-22T15:10:15;7.07;;;1.52;;
57233;SDS011;43090;52.604;13.318;2022-07-22T15:33:06;1.92;;;1.50;;
57233;SDS011;43090;52.604;13.318;2022-07-22T15:46:21;1.90;;;1.50;;
57233;SDS011;43090;52.604;13.318;2022-07-22T15:57:03;2.40;;;1.45;;
57233;SDS011;43090;52.604;13.318;2022-07-22T16:36:32;3.15;;;1.90;;
57233;SDS011;43090;52.604;13.318;2022-07-22T17:48:21;3.15;;;2.55;;
57233;SDS011;43090;52.604;13.318;2022-07-22T17:51:01;2.72;;;2.25;;
57233;SDS011;43090;52.604;13.318;2022-07-22T17:56:31;4.72;;;2.58;;
57233;SDS011;43090;52.604;13.318;2022-07-22T17:59:49;4.82;;;3.15;;
57233;SDS011;43090;52.604;13.318;2022-07-22T18:02:28;4.55;;;3.03;;
57233;SDS011;43090;52.604;13.318;2022-07-22T18:05:03;3.58;;;2.85;;
57233;SDS011;43090;52.604;13.318;2022-07-22T18:07:35;3.72;;;2.67;;
57233;SDS011;43090;52.604;13.318;2022-07-22T18:12:34;8.77;;;2.97;;
57233;SDS011;43090;52.604;13.318;2022-07-22T18:15:04;4.65;;;3.00;;
57233;SDS011;43090;52.604;13.318;2022-07-22T18:17:34;4.22;;;2.92;;
57233;SDS011;43090;52.604;13.318;2022-07-22T18:27:27;4.55;;;2.72;;
57233;SDS011;43090;52.604;13.318;2022-07-22T18:29:57;3.25;;;2.88;;
57233;SDS011;43090;52.604;13.318;2022-07-22T18:32:25;6.15;;;3.17;;
57233;SDS011;43090;52.604;13.318;2022-07-22T18:34:55;4.00;;;3.00;;
57233;SDS011;43090;52.604;13.318;2022-07-22T18:37:22;3.80;;;2.85;;
57233;SDS011;43090;52.604;13.318;2022-07-22T18:39:49;7.80;;;3.15;;
57233;SDS011;43090;52.604;13.318;2022-07-22T18:42:16;6.18;;;2.90;;
57233;SDS011;43090;52.604;13.318;2022-07-22T19:11:14;4.90;;;3.13;;
57233;SDS011;43090;52.604;13.318;2022-07-22T21:29:59;9.10;;;4.60;;
57233;SDS011;43090;52.604;13.318;2022-07-22T21:36:39;10.65;;;4.78;;
57233;SDS011;43090;52.604;13.318;2022-07-22T21:40:27;10.33;;;5.27;;
57233;SDS011;43090;52.604;13.318;2022-07-22T21:43:00;7.82;;;5.20;;
57233;SDS011;43090;52.604;13.318;2022-07-22T21:45:38;9.63;;;5.40;;
57233;SDS011;43090;52.604;13.318;2022-07-22T21:48:19;8.30;;;5.28;;
57233;SDS011;43090;52.604;13.318;2022-07-22T21:50:57;7.22;;;4.50;;
57233;SDS011;43090;52.604;13.318;2022-07-22T21:53:26;10.00;;;5.40;;
57233;SDS011;43090;52.604;13.318;2022-07-22T22:03:24;8.00;;;5.30;;
57233;SDS011;43090;52.604;13.318;2022-07-22T22:05:53;10.38;;;5.10;;
57233;SDS011;43090;52.604;13.318;2022-07-22T22:08:19;7.75;;;5.00;;
57233;SDS011;43090;52.604;13.318;2022-07-22T22:10:46;9.23;;;5.10;;
57233;SDS011;43090;52.604;13.318;2022-07-22T22:13:18;6.32;;;4.70;;
57233;SDS011;43090;52.604;13.318;2022-07-22T22:15:45;7.13;;;4.95;;
57233;SDS011;43090;52.604;13.318;2022-07-22T22:18:11;7.55;;;5.03;;
57233;SDS011;43090;52.604;13.318;2022-07-22T22:20:38;7.15;;;5.10;;
57233;SDS011;43090;52.604;13.318;2022-07-22T22:23:04;8.60;;;5.22;;
57233;SDS011;43090;52.604;13.318;2022-07-22T22:25:31;8.00;;;5.32;;
57233;SDS011;43090;52.604;13.318;2022-07-22T22:27:57;12.55;;;5.53;;
57233;SDS011;43090;52.604;13.318;2022-07-22T22:30:24;10.73;;;5.00;;
57233;SDS011;43090;52.604;13.318;2022-07-22T22:32:51;8.32;;;5.20;;
57233;SDS011;43090;52.604;13.318;2022-07-22T22:35:17;7.80;;;4.78;;
57233;SDS011;43090;52.604;13.318;2022-07-22T22:38:05;8.48;;;5.50;;
57233;SDS011;43090;52.604;13.318;2022-07-22T22:44:48;8.02;;;5.45;;
57233;SDS011;43090;52.604;13.318;2022-07-22T22:47:14;11.10;;;5.45;;
57233;SDS011;43090;52.604;13.318;2022-07-22T22:49:41;6.63;;;4.63;;
57233;SDS011;43090;52.604;13.318;2022-07-22T22:52:07;11.85;;;5.00;;
57233;SDS011;43090;52.604;13.318;2022-07-22T22:54:34;7.22;;;5.00;;
57233;SDS011;43090;52.604;13.318;2022-07-22T22:57:00;11.70;;;4.93;;
57233;SDS011;43090;52.604;13.318;2022-07-22T22:59:27;7.28;;;5.55;;
57233;SDS011;43090;52.604;13.318;2022-07-22T23:01:54;10.27;;;5.50;;
57233;SDS011;43090;52.604;13.318;2022-07-22T23:04:20;8.45;;;5.20;;
57233;SDS011;43090;52.604;13.318;2022-07-22T23:09:15;7.10;;;5.28;;
57233;SDS011;43090;52.604;13.318;2022-07-22T23:11:42;8.32;;;5.22;;
57233;SDS011;43090;52.604;13.318;2022-07-22T23:14:09;7.65;;;5.05;;
57233;SDS011;43090;52.604;13.318;2022-07-22T23:16:35;8.18;;;5.65;;
57233;SDS011;43090;52.604;13.318;2022-07-22T23:19:02;12.75;;;5.78;;
57233;SDS011;43090;52.604;13.318;2022-07-22T23:21:30;9.93;;;4.68;;
57233;SDS011;43090;52.604;13.318;2022-07-22T23:23:56;7.13;;;4.72;;
57233;SDS011;43090;52.604;13.318;2022-07-22T23:26:23;6.30;;;4.85;;
57233;SDS011;43090;52.604;13.318;2022-07-22T23:28:50;9.07;;;5.50;;
57233;SDS011;43090;52.604;13.318;2022-07-22T23:31:17;7.35;;;4.85;;
57233;SDS011;43090;52.604;13.318;2022-07-22T23:33:45;11.73;;;5.60;;
57233;SDS011;43090;52.604;13.318;2022-07-22T23:36:11;12.40;;;5.40;;
57233;SDS011;43090;52.604;13.318;2022-07-22T23:38:38;8.85;;;5.30;;
57233;SDS011;43090;52.604;13.318;2022-07-22T23:41:05;9.00;;;4.93;;
57233;SDS011;43090;52.604;13.318;2022-07-22T23:43:31;9.15;;;5.80;;
57233;SDS011;43090;52.604;13.318;2022-07-22T23:45:58;9.05;;;5.05;;
57233;SDS011;43090;52.604;13.318;2022-07-22T23:48:25;10.85;;;5.55;;
57233;SDS011;43090;52.604;13.318;2022-07-22T23:50:52;6.30;;;4.68;;
57233;SDS011;43090;52.604;13.318;2022-07-22T23:53:18;7.28;;;5.45;;
57233;SDS011;43090;52.604;13.318;2022-07-22T23:55:45;7.97;;;5.32;;
57233;SDS011;43090;52.604;13.318;2022-07-22T23:58:11;8.75;;;5.78;;
